Time;durP1;ratioP1;P1;durP2;ratioP2;P2;SDS_P1;SDS_P2;PMS_P1;PMS_P2;Temp;Humidity;BMP_temperature;BMP_pressure;BME280_temperature;BME280_humidity;BME280_pressure;Samples;Min_cycle;Max_cycle;Signal;HPM_P1;HPM_P2
2021/04/15 00:01:50;;;;;;;6.32;4.30;;;3.70;94.00;;;;;;5075811;28;20068;-78
2021/04/15 00:04:17;;;;;;;6.95;4.35;;;3.70;94.00;;;;;;5088290;28;20079;-76
2021/04/15 00:06:44;;;;;;;6.32;4.00;;;3.60;94.50;;;;;;5089976;28;20128;-77
2021/04/15 00:09:15;;;;;;;7.75;5.07;;;3.60;94.80;;;;;;5085605;28;20044;-76
2021/04/15 00:11:43;;;;;;;7.03;4.30;;;3.60;94.70;;;;;;5095076;28;20131;-77
2021/04/15 00:14:13;;;;;;;6.13;4.20;;;3.60;94.70;;;;;;5093916;28;20064;-77
2021/04/15 00:16:40;;;;;;;7.55;4.38;;;3.70;94.70;;;;;;5094770;28;20119;-77
2021/04/15 00:19:09;;;;;;;6.70;4.45;;;3.70;94.80;;;;;;5095356;28;20044;-77
2021/04/15 00:21:36;;;;;;;7.13;3.95;;;3.70;94.70;;;;;;5095827;28;20055;-77
2021/04/15 00:24:03;;;;;;;7.38;4.40;;;3.70;95.00;;;;;;5095423;28;20102;-77
2021/04/15 00:26:31;;;;;;;7.32;4.78;;;3.70;94.70;;;;;;5094671;28;20099;-77
2021/04/15 00:28:59;;;;;;;7.07;4.47;;;3.80;94.50;;;;;;5076108;28;20131;-79
2021/04/15 00:31:29;;;;;;;7.75;4.30;;;3.80;94.60;;;;;;5080733;28;20083;-77
2021/04/15 00:33:57;;;;;;;7.38;4.88;;;3.80;94.60;;;;;;5094258;28;20520;-78
2021/04/15 00:36:25;;;;;;;7.13;4.47;;;3.70;94.30;;;;;;5095090;28;20105;-78
2021/04/15 00:38:53;;;;;;;7.55;5.00;;;3.90;93.80;;;;;;5076041;28;20052;-78
2021/04/15 00:41:20;;;;;;;7.45;4.72;;;3.80;93.40;;;;;;5074975;28;20147;-78
2021/04/15 00:43:47;;;;;;;7.60;5.30;;;3.70;93.40;;;;;;5077336;28;20155;-78
2021/04/15 00:46:48;;;;;;;8.43;4.95;;;3.60;93.40;;;;;;5094798;28;20075;-78
2021/04/15 00:49:24;;;;;;;8.60;5.20;;;3.50;93.80;;;;;;5074853;28;20076;-78
2021/04/15 00:51:55;;;;;;;8.60;4.95;;;3.40;94.20;;;;;;5074467;28;20052;-77
2021/04/15 00:54:50;;;;;;;9.77;5.20;;;3.40;94.40;;;;;;5074659;28;20131;-80
2021/04/15 00:57:21;;;;;;;8.65;5.28;;;3.40;94.20;;;;;;5075500;28;20502;-78
2021/04/15 00:59:48;;;;;;;8.38;5.65;;;3.30;94.00;;;;;;5087482;28;20127;-78
2021/04/15 01:02:19;;;;;;;9.40;6.30;;;3.30;94.00;;;;;;5094727;28;20048;-78
2021/04/15 01:04:48;;;;;;;8.20;5.22;;;3.20;94.30;;;;;;5094696;28;20146;-78
2021/04/15 01:07:15;;;;;;;9.48;6.28;;;3.10;94.60;;;;;;5089229;28;20087;-79
2021/04/15 01:09:42;;;;;;;13.43;8.18;;;3.10;95.00;;;;;;5074313;28;20079;-77
2021/04/15 01:12:33;;;;;;;10.48;7.15;;;3.10;95.40;;;;;;5074231;28;20080;-78
2021/04/15 01:15:15;;;;;;;8.85;6.10;;;3.10;95.60;;;;;;5090265;28;20048;-80
2021/04/15 01:17:50;;;;;;;8.40;5.70;;;3.00;95.90;;;;;;5085145;28;20086;-77
2021/04/15 01:21:11;;;;;;;9.20;6.43;;;3.00;96.00;;;;;;5074226;28;20068;-77
2021/04/15 01:23:46;;;;;;;10.65;6.05;;;3.00;96.20;;;;;;5080284;28;20079;-77
2021/04/15 01:26:58;;;;;;;10.43;6.73;;;3.00;96.20;;;;;;5094566;28;20122;-78
2021/04/15 01:29:38;;;;;;;10.85;7.00;;;3.10;96.20;;;;;;5074333;28;20131;-77
2021/04/15 01:32:17;;;;;;;11.25;6.70;;;3.10;95.80;;;;;;5073908;28;20106;-77
2021/04/15 01:34:49;;;;;;;11.88;6.93;;;3.10;95.30;;;;;;5073765;28;20661;-77
2021/04/15 01:37:26;;;;;;;11.32;6.40;;;3.10;95.00;;;;;;5074900;28;20080;-77
2021/04/15 01:40:04;;;;;;;12.10;7.47;;;3.00;95.00;;;;;;5073809;28;20102;-77
2021/04/15 01:42:38;;;;;;;10.73;6.40;;;3.00;94.50;;;;;;5073746;28;20084;-78
2021/04/15 01:45:10;;;;;;;9.82;6.70;;;2.90;94.60;;;;;;5088878;28;20131;-78
2021/04/15 01:47:41;;;;;;;8.45;5.88;;;2.70;95.00;;;;;;5079776;28;20509;-79
2021/04/15 01:50:15;;;;;;;9.93;6.30;;;2.60;95.10;;;;;;5093784;28;20075;-78
2021/04/15 01:52:44;;;;;;;10.02;6.30;;;2.60;95.50;;;;;;5092535;28;20516;-77
2021/04/15 01:55:18;;;;;;;9.82;5.97;;;2.50;95.50;;;;;;5093713;28;20052;-77
2021/04/15 01:57:56;;;;;;;9.25;6.05;;;2.40;95.90;;;;;;5084587;28;20075;-78
2021/04/15 02:00:28;;;;;;;10.38;6.75;;;2.40;96.30;;;;;;5082499;28;20516;-78
2021/04/15 02:03:01;;;;;;;9.02;6.15;;;2.50;96.40;;;;;;5091171;28;20497;-78
2021/04/15 02:05:32;;;;;;;11.88;6.90;;;2.50;96.50;;;;;;5073239;28;20080;-78
2021/04/15 02:08:08;;;;;;;10.27;6.47;;;2.50;96.60;;;;;;5083072;28;20569;-79
2021/04/15 02:10:40;;;;;;;12.52;6.97;;;2.60;96.00;;;;;;5093861;28;20087;-78
2021/04/15 02:13:10;;;;;;;10.32;6.82;;;2.60;96.10;;;;;;5093550;28;20095;-78
2021/04/15 02:15:45;;;;;;;9.57;6.47;;;2.50;96.10;;;;;;5080026;28;20546;-78
2021/04/15 02:18:17;;;;;;;;;;;2.60;96.30;;;;;;5084850;28;20138;-77
2021/04/15 02:20:50;;;;;;;9.85;6.80;;;2.60;96.40;;;;;;5093245;28;20011;-77
2021/04/15 02:23:25;;;;;;;9.40;6.68;;;2.60;96.00;;;;;;5086777;28;20147;-78
2021/04/15 02:25:57;;;;;;;9.98;6.57;;;2.70;95.10;;;;;;5055455;28;20127;-78
2021/04/15 02:28:30;;;;;;;11.25;6.93;;;2.60;95.40;;;;;;5073157;28;20109;-77
2021/04/15 02:31:09;;;;;;;9.98;6.70;;;2.50;95.80;;;;;;5074169;28;20071;-78
2021/04/15 02:33:41;;;;;;;9.88;6.57;;;2.50;96.00;;;;;;5072743;28;20076;-78
2021/04/15 02:36:10;;;;;;;11.73;7.72;;;2.50;96.30;;;;;;5072588;28;20134;-78
2021/04/15 02:38:46;;;;;;;11.02;7.45;;;2.50;96.00;;;;;;5083781;28;20480;-77
2021/04/15 02:41:18;;;;;;;10.65;6.85;;;2.50;96.00;;;;;;5093260;28;20048;-78
2021/04/15 02:43:51;;;;;;;10.13;6.50;;;2.50;96.10;;;;;;5092771;28;20079;-78
2021/04/15 02:46:23;;;;;;;11.50;7.15;;;2.40;95.90;;;;;;5091553;28;20166;-79
2021/04/15 02:48:51;;;;;;;10.00;7.05;;;2.40;95.90;;;;;;5072892;28;20139;-78
2021/04/15 02:51:25;;;;;;;10.10;6.70;;;2.40;96.10;;;;;;5072470;28;20545;-77
2021/04/15 02:54:00;;;;;;;8.73;6.00;;;2.40;95.80;;;;;;5087493;28;20109;-78
2021/04/15 02:56:33;;;;;;;9.02;6.55;;;2.40;96.10;;;;;;5091859;28;20079;-78
2021/04/15 02:59:06;;;;;;;8.85;6.22;;;2.40;96.00;;;;;;5091971;28;20557;-78
2021/04/15 03:01:38;;;;;;;10.02;6.57;;;2.40;96.00;;;;;;5092333;28;20121;-78
2021/04/15 03:04:13;;;;;;;8.32;6.55;;;2.50;96.30;;;;;;5089400;28;20084;-77
2021/04/15 03:06:44;;;;;;;9.88;7.05;;;2.50;95.90;;;;;;5089532;28;20059;-78
2021/04/15 03:09:13;;;;;;;10.50;6.68;;;2.50;95.80;;;;;;5066195;28;20098;-78
2021/04/15 03:11:46;;;;;;;10.38;7.35;;;2.50;95.30;;;;;;5068778;28;20068;-78
2021/04/15 03:14:20;;;;;;;10.10;7.00;;;2.50;95.10;;;;;;5069174;28;20040;-78
2021/04/15 03:16:51;;;;;;;11.90;7.45;;;2.50;95.00;;;;;;5051367;28;20140;-79
2021/04/15 03:19:23;;;;;;;10.75;6.97;;;2.40;95.20;;;;;;5069032;28;20143;-78
2021/04/15 03:22:01;;;;;;;11.23;6.88;;;2.40;95.20;;;;;;5071126;28;20084;-78
2021/04/15 03:24:34;;;;;;;10.45;6.88;;;2.40;95.10;;;;;;5088359;28;20079;-78
2021/04/15 03:27:08;;;;;;;11.85;7.10;;;2.30;95.20;;;;;;5087856;28;20079;-77
2021/04/15 03:29:41;;;;;;;11.18;7.22;;;2.30;95.40;;;;;;5068846;28;20103;-78
2021/04/15 03:32:19;;;;;;;10.13;6.85;;;2.30;95.10;;;;;;5069036;28;20139;-79
2021/04/15 03:34:57;;;;;;;10.50;7.00;;;2.30;95.30;;;;;;5069413;28;20068;-78
2021/04/15 03:37:30;;;;;;;10.52;6.82;;;2.30;95.20;;;;;;5076936;28;20474;-78
2021/04/15 03:39:58;;;;;;;10.77;6.88;;;2.20;95.20;;;;;;5089176;28;20168;-77
2021/04/15 03:42:29;;;;;;;9.30;6.60;;;2.20;94.90;;;;;;5088800;28;20583;-77
2021/04/15 03:45:03;;;;;;;9.48;6.68;;;2.20;95.00;;;;;;5089391;28;20048;-78
2021/04/15 03:47:36;;;;;;;10.60;6.72;;;2.10;95.20;;;;;;5064486;28;20044;-78
2021/04/15 03:50:08;;;;;;;11.23;6.93;;;2.10;95.20;;;;;;5092764;28;20127;-78
2021/04/15 03:52:42;;;;;;;10.93;7.07;;;2.10;95.00;;;;;;5079366;28;20086;-78
2021/04/15 03:55:26;;;;;;;11.00;7.25;;;2.10;95.00;;;;;;5072256;28;20048;-77
2021/04/15 03:57:59;;;;;;;11.43;7.47;;;2.10;95.20;;;;;;5072079;28;20554;-78
2021/04/15 04:00:33;;;;;;;10.68;7.47;;;2.00;95.10;;;;;;5071822;28;20421;-78
2021/04/15 04:03:05;;;;;;;11.48;7.28;;;2.00;95.50;;;;;;5075495;28;20041;-77
2021/04/15 04:05:39;;;;;;;9.80;6.70;;;2.00;95.20;;;;;;5075731;28;20130;-78
2021/04/15 04:08:16;;;;;;;10.63;7.20;;;2.00;95.50;;;;;;5094009;28;20135;-78
2021/04/15 04:10:46;;;;;;;9.55;6.82;;;2.00;95.70;;;;;;5093561;28;20054;-77
2021/04/15 04:13:29;;;;;;;11.10;7.25;;;2.00;95.70;;;;;;5075221;28;20080;-77
2021/04/15 04:16:04;;;;;;;10.63;7.20;;;2.10;95.70;;;;;;5075563;28;20136;-78
2021/04/15 04:18:39;;;;;;;;;;;2.10;95.50;;;;;;5086951;28;20129;-77
2021/04/15 04:21:13;;;;;;;14.45;7.70;;;2.00;95.00;;;;;;5090835;28;20019;-79
2021/04/15 04:23:49;;;;;;;12.13;7.90;;;2.00;94.70;;;;;;5095600;28;20413;-77
2021/04/15 04:26:25;;;;;;;11.50;8.00;;;2.00;94.10;;;;;;5095539;28;20082;-77
2021/04/15 04:29:22;;;;;;;11.07;7.13;;;1.90;94.30;;;;;;5081084;28;20135;-78
2021/04/15 04:31:54;;;;;;;11.82;7.70;;;1.70;94.70;;;;;;5072980;28;20072;-79
2021/04/15 04:34:23;;;;;;;14.32;8.05;;;1.70;94.70;;;;;;5074945;28;20465;-78
2021/04/15 04:36:53;;;;;;;11.07;7.63;;;1.60;95.00;;;;;;5075115;28;20461;-78
2021/04/15 04:39:22;;;;;;;13.07;7.45;;;1.60;94.80;;;;;;5074589;28;20079;-78
2021/04/15 04:42:02;;;;;;;13.60;8.45;;;1.50;94.70;;;;;;5074718;28;20524;-79
2021/04/15 04:44:38;;;;;;;11.50;7.63;;;1.50;94.60;;;;;;5074564;28;20045;-79
2021/04/15 04:47:15;;;;;;;12.80;8.70;;;1.40;95.30;;;;;;5074302;28;20131;-79
2021/04/15 04:49:46;;;;;;;12.85;8.40;;;1.40;95.80;;;;;;5075209;28;20135;-79
2021/04/15 04:52:21;;;;;;;12.48;8.13;;;1.40;96.20;;;;;;5094740;28;20087;-78
2021/04/15 04:54:48;;;;;;;15.27;9.68;;;1.30;96.20;;;;;;5094056;28;20080;-78
2021/04/15 04:57:18;;;;;;;13.10;8.18;;;1.40;96.10;;;;;;5093196;28;20135;-78
2021/04/15 04:59:51;;;;;;;14.45;8.65;;;1.40;96.50;;;;;;5094281;28;20048;-79
2021/04/15 05:02:18;;;;;;;12.98;8.48;;;1.40;96.80;;;;;;5094595;28;20135;-78
2021/04/15 05:04:45;;;;;;;12.05;7.78;;;1.40;97.00;;;;;;5094402;28;20130;-78
2021/04/15 05:07:20;;;;;;;13.90;9.00;;;1.50;97.20;;;;;;5093930;28;20055;-79
2021/04/15 05:09:48;;;;;;;12.30;8.73;;;1.50;96.80;;;;;;5074312;28;20075;-77
2021/04/15 05:12:21;;;;;;;14.55;9.18;;;1.60;96.60;;;;;;5074385;28;20091;-78
2021/04/15 05:14:51;;;;;;;14.18;8.77;;;1.60;96.10;;;;;;5073998;28;20079;-78
2021/04/15 05:17:25;;;;;;;18.17;8.23;;;1.50;96.10;;;;;;5073489;28;20182;-78
2021/04/15 05:19:55;;;;;;;13.05;8.73;;;1.50;96.40;;;;;;5074083;28;20083;-78
2021/04/15 05:22:30;;;;;;;12.40;8.13;;;1.50;96.80;;;;;;5076832;28;20119;-80
2021/04/15 05:25:03;;;;;;;13.15;8.52;;;1.50;96.90;;;;;;5093901;28;20086;-78
2021/04/15 05:27:34;;;;;;;12.35;8.35;;;1.60;97.10;;;;;;5094006;28;20564;-78
2021/04/15 05:30:31;;;;;;;14.50;8.65;;;1.60;96.90;;;;;;5093736;28;20083;-78
2021/04/15 05:33:02;;;;;;;12.90;8.70;;;1.70;96.80;;;;;;5094086;28;20127;-79
2021/04/15 05:35:37;;;;;;;13.30;8.52;;;1.70;96.90;;;;;;5093863;28;20131;-78
2021/04/15 05:38:06;;;;;;;13.45;8.00;;;1.70;97.10;;;;;;5081011;28;20052;-78
2021/04/15 05:40:33;;;;;;;13.95;8.30;;;1.80;97.40;;;;;;5056058;28;20552;-79
2021/04/15 05:43:26;;;;;;;11.93;8.35;;;1.80;97.70;;;;;;5073591;28;20136;-78
2021/04/15 05:46:08;;;;;;;13.13;8.45;;;1.90;97.30;;;;;;5073503;28;20058;-77
2021/04/15 05:48:37;;;;;;;13.73;7.95;;;2.10;97.00;;;;;;5070132;28;20072;-77
2021/04/15 05:51:12;;;;;;;12.57;8.05;;;2.10;97.20;;;;;;5073558;28;20044;-77
2021/04/15 05:53:42;;;;;;;12.93;8.88;;;2.10;97.10;;;;;;5092402;28;20055;-78
2021/04/15 05:56:14;;;;;;;13.57;8.73;;;2.20;97.30;;;;;;5093604;28;20130;-77
2021/04/15 05:58:53;;;;;;;13.10;9.00;;;2.10;97.00;;;;;;5093456;28;20048;-78
2021/04/15 06:01:30;;;;;;;13.60;8.80;;;2.20;97.00;;;;;;5073266;28;20498;-77
2021/04/15 06:04:03;;;;;;;13.35;8.82;;;2.40;96.90;;;;;;5073385;28;20084;-78
2021/04/15 06:06:35;;;;;;;12.27;8.35;;;2.40;96.60;;;;;;5077415;28;20044;-77
2021/04/15 06:09:03;;;;;;;11.93;7.65;;;2.50;96.60;;;;;;5093007;28;20131;-77
2021/04/15 06:11:45;;;;;;;12.52;8.57;;;2.50;96.80;;;;;;5091272;28;20147;-78
2021/04/15 06:14:23;;;;;;;12.80;8.85;;;2.60;96.90;;;;;;5073221;28;20048;-79
2021/04/15 06:17:23;;;;;;;12.57;8.10;;;2.60;96.50;;;;;;5073900;28;20083;-80
2021/04/15 06:19:53;;;;;;;13.27;8.80;;;2.70;96.40;;;;;;5073137;28;20048;-78
2021/04/15 06:22:24;;;;;;;13.20;8.95;;;2.70;96.40;;;;;;5077432;28;20471;-77
2021/04/15 06:24:56;;;;;;;14.15;9.05;;;2.80;96.20;;;;;;5072898;28;20121;-78
2021/04/15 06:27:23;;;;;;;14.63;9.90;;;2.80;96.20;;;;;;5073038;28;20079;-78
2021/04/15 06:29:59;;;;;;;13.57;10.00;;;2.80;95.80;;;;;;5073377;28;20080;-79
2021/04/15 06:32:34;;;;;;;16.70;9.35;;;2.90;95.80;;;;;;5093232;28;20565;-79
2021/04/15 06:35:00;;;;;;;15.48;9.15;;;2.80;95.90;;;;;;5086514;28;20076;-77
2021/04/15 06:37:41;;;;;;;12.68;9.05;;;2.70;96.10;;;;;;5073127;28;20460;-77
2021/04/15 06:41:06;;;;;;;13.23;9.27;;;2.90;96.20;;;;;;5072817;28;20044;-78
2021/04/15 06:44:36;;;;;;;14.55;9.75;;;2.90;96.20;;;;;;5072693;28;20049;-77
2021/04/15 06:47:33;;;;;;;14.02;9.68;;;3.00;96.20;;;;;;5072864;28;20091;-79
2021/04/15 06:50:16;;;;;;;14.55;9.60;;;3.20;96.20;;;;;;5072831;28;20053;-77
2021/04/15 06:53:06;;;;;;;16.17;10.37;;;3.20;96.50;;;;;;5072778;28;20090;-78
2021/04/15 06:55:45;;;;;;;16.35;10.85;;;3.30;96.70;;;;;;5072540;28;20520;-78
2021/04/15 06:58:38;;;;;;;14.48;10.07;;;3.30;96.50;;;;;;5072555;28;20045;-77
2021/04/15 07:01:31;;;;;;;17.20;12.30;;;3.40;96.70;;;;;;5072940;28;20445;-77
2021/04/15 07:04:04;;;;;;;18.85;11.68;;;3.40;96.60;;;;;;5072755;28;20469;-77
2021/04/15 07:06:55;;;;;;;19.55;10.10;;;3.50;96.50;;;;;;5072366;28;20052;-77
2021/04/15 07:10:11;;;;;;;16.50;10.40;;;3.50;96.60;;;;;;5072299;28;20124;-76
2021/04/15 07:13:19;;;;;;;16.27;10.80;;;3.60;96.60;;;;;;5054534;28;20079;-78
2021/04/15 07:16:19;;;;;;;15.32;10.80;;;3.70;96.40;;;;;;5073605;28;20049;-78
2021/04/15 07:19:35;;;;;;;16.45;10.90;;;3.80;96.30;;;;;;5072426;28;20498;-77
2021/04/15 07:22:38;;;;;;;18.92;12.02;;;3.90;96.20;;;;;;5076027;28;20090;-77
2021/04/15 07:25:34;;;;;;;17.17;11.65;;;3.90;96.10;;;;;;5063390;28;20048;-77
2021/04/15 07:28:20;;;;;;;15.95;11.38;;;4.00;96.00;;;;;;5076083;28;20051;-78
2021/04/15 07:31:36;;;;;;;16.90;11.98;;;4.10;95.80;;;;;;5075825;28;20135;-77
2021/04/15 07:34:37;;;;;;;17.50;11.70;;;4.10;95.60;;;;;;5053154;28;20128;-78
2021/04/15 07:37:38;;;;;;;18.80;12.32;;;4.20;95.60;;;;;;5075992;28;20098;-78
2021/04/15 07:40:43;;;;;;;19.00;12.55;;;4.20;95.60;;;;;;5075685;28;20536;-79
2021/04/15 07:43:39;;;;;;;17.25;11.70;;;4.30;94.90;;;;;;5075795;28;20131;-78
2021/04/15 07:46:14;;;;;;;15.75;11.35;;;4.20;95.30;;;;;;5075862;28;20078;-78
2021/04/15 07:49:11;;;;;;;18.75;11.80;;;4.20;95.40;;;;;;5090903;28;20494;-79
2021/04/15 07:52:33;;;;;;;16.40;11.60;;;4.20;95.40;;;;;;5096319;28;20072;-78
2021/04/15 07:55:44;;;;;;;16.52;11.35;;;4.30;95.20;;;;;;5090585;28;20079;-77
2021/04/15 07:58:44;;;;;;;18.45;12.02;;;4.30;95.20;;;;;;5095535;28;20473;-78
2021/04/15 08:02:02;;;;;;;19.90;12.10;;;4.30;95.20;;;;;;5091318;28;20087;-77
2021/04/15 08:05:23;;;;;;;19.50;12.40;;;4.30;95.20;;;;;;5075556;28;20147;-77
2021/04/15 08:08:18;;;;;;;20.73;13.07;;;4.20;95.20;;;;;;5075201;28;20459;-77
2021/04/15 08:11:30;;;;;;;19.90;12.68;;;4.20;95.20;;;;;;5075293;28;20072;-77
2021/04/15 08:14:45;;;;;;;16.88;11.23;;;4.30;95.40;;;;;;5085956;28;20135;-76
2021/04/15 08:17:20;;;;;;;18.33;11.18;;;4.40;95.40;;;;;;5090386;28;20079;-77
2021/04/15 08:20:32;;;;;;;16.33;10.90;;;4.50;95.00;;;;;;5095623;28;20500;-78
2021/04/15 08:23:32;;;;;;;17.25;10.77;;;4.60;94.70;;;;;;5090588;28;20071;-78
2021/04/15 08:26:57;;;;;;;16.88;10.13;;;4.70;94.50;;;;;;5074978;28;20138;-77
2021/04/15 08:29:50;;;;;;;15.05;9.90;;;4.70;94.60;;;;;;5029762;28;20124;-79
2021/04/15 08:32:30;;;;;;;15.25;9.48;;;4.80;94.20;;;;;;5075162;28;20128;-78
2021/04/15 08:35:11;;;;;;;13.55;8.95;;;4.80;93.80;;;;;;5074799;28;20489;-77
2021/04/15 08:37:53;;;;;;;15.43;9.88;;;4.80;93.70;;;;;;5074680;28;20048;-77
2021/04/15 08:40:35;;;;;;;16.75;11.05;;;4.80;93.90;;;;;;5074805;28;20080;-77
2021/04/15 08:43:26;;;;;;;19.33;10.65;;;4.90;93.90;;;;;;5074777;28;20085;-77
2021/04/15 08:46:00;;;;;;;15.30;10.45;;;4.90;94.20;;;;;;5074934;28;20127;-78
2021/04/15 08:48:44;;;;;;;16.27;11.00;;;5.10;94.10;;;;;;5074724;28;20433;-77
2021/04/15 08:51:46;;;;;;;17.80;9.65;;;5.10;94.40;;;;;;5074518;28;20053;-77
2021/04/15 08:54:35;;;;;;;14.80;9.75;;;5.20;94.20;;;;;;5074711;28;20056;-77
2021/04/15 08:57:16;;;;;;;13.38;9.40;;;5.30;94.00;;;;;;5074571;28;20406;-76
2021/04/15 08:59:59;;;;;;;14.82;8.98;;;5.40;93.40;;;;;;5056628;28;20076;-77
2021/04/15 09:02:35;;;;;;;11.45;7.40;;;5.40;92.90;;;;;;5070787;28;20482;-76
2021/04/15 09:05:13;;;;;;;12.88;8.32;;;5.60;93.00;;;;;;5094652;28;20132;-76
2021/04/15 09:07:55;;;;;;;12.23;7.55;;;5.50;93.00;;;;;;5094326;28;20079;-76
2021/04/15 09:10:28;;;;;;;12.93;7.40;;;5.70;92.70;;;;;;5094564;28;20048;-77
2021/04/15 09:13:14;;;;;;;11.30;6.75;;;5.80;92.50;;;;;;5093018;28;20098;-78
2021/04/15 09:15:54;;;;;;;9.70;5.88;;;5.80;91.90;;;;;;5094176;28;20482;-77
2021/04/15 09:18:27;;;;;;;10.13;6.57;;;5.90;92.30;;;;;;5094272;28;20130;-78
2021/04/15 09:21:22;;;;;;;8.77;5.70;;;6.00;91.50;;;;;;5094162;28;20059;-78
2021/04/15 09:24:14;;;;;;;10.02;6.22;;;6.20;91.30;;;;;;5094077;28;20401;-77
2021/04/15 09:27:31;;;;;;;9.73;5.72;;;6.30;90.70;;;;;;5094272;28;20122;-76
2021/04/15 09:30:21;;;;;;;6.82;4.15;;;6.40;90.50;;;;;;5094355;28;20127;-75
2021/04/15 09:33:06;;;;;;;6.35;4.10;;;6.50;89.70;;;;;;5083134;28;20454;-76
2021/04/15 09:36:03;;;;;;;6.82;3.67;;;6.60;89.70;;;;;;5094115;28;20084;-78
2021/04/15 09:39:12;;;;;;;7.47;4.22;;;6.90;87.20;;;;;;5092150;28;20480;-77
2021/04/15 09:42:24;;;;;;;7.13;4.13;;;7.10;85.90;;;;;;5093925;28;20090;-77
2021/04/15 09:45:04;;;;;;;5.90;3.50;;;7.20;84.20;;;;;;5073612;28;20127;-76
2021/04/15 09:47:40;;;;;;;5.72;3.08;;;7.20;82.90;;;;;;5074400;28;20473;-77
2021/04/15 09:50:19;;;;;;;5.18;3.13;;;7.20;82.40;;;;;;5090723;28;20485;-77
2021/04/15 09:53:11;;;;;;;6.55;3.50;;;7.50;81.00;;;;;;5094226;28;20184;-76
2021/04/15 09:56:27;;;;;;;5.97;3.15;;;7.80;75.90;;;;;;5094055;28;20047;-76
2021/04/15 09:59:07;;;;;;;6.45;3.55;;;7.80;76.00;;;;;;5074468;28;20087;-75
2021/04/15 10:01:38;;;;;;;5.97;3.30;;;7.90;76.70;;;;;;5093884;28;20094;-76
2021/04/15 10:04:12;;;;;;;5.72;3.25;;;8.10;72.80;;;;;;5084871;28;20137;-78
2021/04/15 10:06:47;;;;;;;5.22;2.97;;;8.20;71.90;;;;;;5080110;28;20152;-77
2021/04/15 10:09:52;;;;;;;6.25;3.40;;;8.30;72.20;;;;;;5093941;28;20135;-78
2021/04/15 10:12:46;;;;;;;6.50;3.90;;;8.50;71.60;;;;;;5052379;28;20094;-78
2021/04/15 10:15:32;;;;;;;6.43;3.80;;;8.50;71.80;;;;;;5091775;28;20044;-78
2021/04/15 10:18:17;;;;;;;7.30;3.63;;;8.70;70.20;;;;;;5093554;28;20123;-76
2021/04/15 10:21:05;;;;;;;7.45;4.00;;;8.70;67.80;;;;;;5091668;28;20052;-76
2021/04/15 10:24:12;;;;;;;6.35;3.53;;;8.70;67.40;;;;;;5073129;28;20466;-77
2021/04/15 10:27:38;;;;;;;6.07;3.80;;;8.70;68.10;;;;;;5078820;28;20075;-79
2021/04/15 10:31:01;;;;;;;5.25;3.10;;;8.80;66.80;;;;;;5053391;28;20041;-78
2021/04/15 10:34:24;;;;;;;5.22;2.47;;;8.90;64.30;;;;;;5073488;28;20076;-77
2021/04/15 10:37:05;;;;;;;5.50;2.57;;;9.00;64.20;;;;;;5073639;28;20143;-76
2021/04/15 10:40:15;;;;;;;5.32;2.40;;;9.10;60.20;;;;;;5073153;28;20217;-77
2021/04/15 10:43:45;;;;;;;4.45;2.30;;;9.10;60.50;;;;;;5073462;28;20124;-78
2021/04/15 10:46:44;;;;;;;4.55;2.13;;;9.20;58.80;;;;;;5072084;28;20086;-77
2021/04/15 10:49:30;;;;;;;6.28;2.50;;;9.20;58.40;;;;;;5051573;28;20508;-77
2021/04/15 10:52:02;;;;;;;4.40;2.05;;;9.20;57.00;;;;;;5072799;28;20139;-76
2021/04/15 10:54:31;;;;;;;4.38;2.13;;;9.20;54.60;;;;;;5073605;28;20127;-76
2021/04/15 10:57:02;;;;;;;4.90;2.70;;;9.20;55.00;;;;;;5076786;28;20140;-76
2021/04/15 10:59:37;;;;;;;5.93;2.60;;;9.10;56.90;;;;;;5076629;28;20080;-77
2021/04/15 11:02:27;;;;;;;4.90;2.58;;;9.00;56.60;;;;;;5075309;28;20053;-79
2021/04/15 11:04:59;;;;;;;4.88;2.22;;;8.90;56.80;;;;;;5076036;28;20102;-76
2021/04/15 11:07:28;;;;;;;3.88;2.00;;;8.80;55.90;;;;;;5076420;28;20457;-76
2021/04/15 11:09:57;;;;;;;4.60;1.67;;;8.70;56.70;;;;;;5076780;28;20132;-77
2021/04/15 11:12:28;;;;;;;4.65;2.00;;;8.50;57.60;;;;;;5074277;28;20131;-77
2021/04/15 11:15:01;;;;;;;3.67;1.67;;;8.40;57.90;;;;;;5055129;28;20147;-78
2021/04/15 11:17:31;;;;;;;3.88;1.77;;;8.40;58.70;;;;;;5081580;28;20079;-77
2021/04/15 11:20:15;;;;;;;3.00;1.55;;;8.40;58.60;;;;;;5092746;28;20105;-77
2021/04/15 11:22:53;;;;;;;4.72;2.00;;;8.30;58.30;;;;;;5093380;28;20047;-76
2021/04/15 11:25:25;;;;;;;4.68;1.80;;;8.30;58.30;;;;;;5092295;28;20094;-78
2021/04/15 11:27:54;;;;;;;3.88;1.88;;;8.50;58.60;;;;;;5092839;28;20127;-78
2021/04/15 11:30:40;;;;;;;7.28;3.65;;;8.60;57.10;;;;;;5093538;28;20086;-79
2021/04/15 11:33:09;;;;;;;4.60;2.20;;;8.80;54.70;;;;;;5089414;28;20466;-75
2021/04/15 11:35:36;;;;;;;4.35;1.80;;;8.90;54.50;;;;;;5093480;28;20086;-77
2021/04/15 11:38:15;;;;;;;3.40;1.70;;;9.10;52.70;;;;;;5092771;28;20119;-78
2021/04/15 11:40:45;;;;;;;3.22;1.50;;;9.20;51.10;;;;;;5093595;28;20048;-77
2021/04/15 11:43:32;;;;;;;3.92;1.67;;;9.30;49.80;;;;;;5093532;28;20127;-77
2021/04/15 11:46:18;;;;;;;4.82;1.88;;;9.40;49.10;;;;;;5091655;28;20139;-77
2021/04/15 11:48:46;;;;;;;5.43;2.70;;;9.40;49.90;;;;;;5056615;28;20143;-77
2021/04/15 11:51:17;;;;;;;5.82;2.97;;;9.40;54.20;;;;;;5072354;28;20193;-77
2021/04/15 11:53:50;;;;;;;7.00;3.45;;;9.50;56.30;;;;;;5072673;28;20474;-75
2021/04/15 11:56:31;;;;;;;7.63;3.30;;;9.40;56.50;;;;;;5072694;28;20072;-78
2021/04/15 11:59:18;;;;;;;5.35;2.85;;;9.30;57.10;;;;;;5072522;28;20056;-78
2021/04/15 12:01:46;;;;;;;5.85;2.58;;;9.20;57.30;;;;;;5074635;28;20083;-77
2021/04/15 12:04:24;;;;;;;6.45;2.70;;;9.20;58.50;;;;;;5072132;28;20102;-76
2021/04/15 12:06:59;;;;;;;5.78;2.80;;;9.10;59.00;;;;;;5071807;28;20135;-76
2021/04/15 12:09:33;;;;;;;5.28;2.60;;;9.00;59.90;;;;;;5073386;28;20118;-76
2021/04/15 12:12:12;;;;;;;5.57;2.78;;;9.00;60.50;;;;;;5072955;28;20075;-78
2021/04/15 12:14:41;;;;;;;5.13;2.50;;;9.00;60.10;;;;;;5073158;28;20127;-77
2021/04/15 12:17:17;;;;;;;4.50;2.20;;;8.90;59.50;;;;;;5072800;28;20139;-76
2021/04/15 12:19:54;;;;;;;5.38;2.33;;;8.90;60.10;;;;;;5072290;28;20306;-77
2021/04/15 12:22:28;;;;;;;5.70;2.10;;;8.80;59.10;;;;;;5072198;28;20048;-78
2021/04/15 12:25:06;;;;;;;5.57;2.38;;;8.90;58.40;;;;;;5075127;28;20494;-77
2021/04/15 12:27:35;;;;;;;3.53;1.92;;;8.80;58.50;;;;;;5073134;28;20136;-77
2021/04/15 12:30:11;;;;;;;4.35;2.42;;;8.80;58.10;;;;;;5077836;28;20097;-77
2021/04/15 12:32:48;;;;;;;5.00;2.40;;;8.70;57.80;;;;;;5085451;28;20156;-77
2021/04/15 12:35:32;;;;;;;5.88;2.65;;;8.80;58.40;;;;;;5087273;28;20493;-77
2021/04/15 12:38:08;;;;;;;3.83;1.92;;;8.70;58.80;;;;;;5072052;28;20049;-76
2021/04/15 12:40:37;;;;;;;4.28;2.05;;;8.60;58.70;;;;;;5074649;28;20548;-76
2021/04/15 12:43:11;;;;;;;5.35;2.33;;;8.70;58.50;;;;;;5071297;28;20145;-77
2021/04/15 12:45:44;;;;;;;4.45;1.90;;;8.70;58.90;;;;;;5073826;28;20464;-78
2021/04/15 12:48:28;;;;;;;5.30;2.17;;;8.90;59.90;;;;;;5081141;28;20143;-77
2021/04/15 12:50:55;;;;;;;4.97;2.35;;;9.10;59.40;;;;;;5071743;28;20505;-78
2021/04/15 12:53:22;;;;;;;4.05;2.35;;;9.40;58.90;;;;;;5054059;28;20135;-79
2021/04/15 12:55:51;;;;;;;4.95;2.25;;;10.00;58.00;;;;;;5070926;28;20131;-78
2021/04/15 12:58:18;;;;;;;4.82;2.10;;;10.00;56.80;;;;;;5075267;28;20513;-77
2021/04/15 13:00:49;;;;;;;4.03;2.15;;;10.30;56.60;;;;;;5088399;28;20067;-77
2021/04/15 13:03:25;;;;;;;4.82;2.35;;;10.80;54.60;;;;;;5088668;28;20067;-79
2021/04/15 13:05:57;;;;;;;3.03;1.70;;;11.10;51.20;;;;;;5071675;28;20114;-79
2021/04/15 13:08:27;;;;;;;3.63;1.88;;;11.40;51.60;;;;;;5071527;28;20132;-78
2021/04/15 13:10:54;;;;;;;3.30;1.90;;;11.70;50.70;;;;;;5071004;28;20183;-77
2021/04/15 13:13:41;;;;;;;3.20;1.80;;;12.00;50.50;;;;;;5071657;28;20140;-77
2021/04/15 13:16:53;;;;;;;4.38;2.05;;;12.20;48.90;;;;;;5079131;28;20052;-77
2021/04/15 13:20:01;;;;;;;8.75;3.08;;;12.30;48.80;;;;;;5066716;28;20143;-77
2021/04/15 13:22:33;;;;;;;5.65;2.55;;;12.60;47.10;;;;;;5078604;28;20055;-78
2021/04/15 13:25:20;;;;;;;3.90;2.20;;;12.90;43.60;;;;;;5091924;28;20052;-78
2021/04/15 13:28:11;;;;;;;5.40;2.40;;;12.70;42.70;;;;;;5091469;28;20155;-78
2021/04/15 13:31:00;;;;;;;4.55;2.22;;;12.70;43.60;;;;;;5091156;28;20083;-78
2021/04/15 13:34:06;;;;;;;3.75;1.80;;;12.90;44.30;;;;;;5091512;28;20113;-77
2021/04/15 13:36:33;;;;;;;4.15;2.03;;;13.20;43.70;;;;;;5072494;28;20133;-77
2021/04/15 13:39:31;;;;;;;5.13;2.90;;;13.40;42.20;;;;;;5070940;28;20153;-77
2021/04/15 13:42:35;;;;;;;8.65;5.13;;;13.60;42.90;;;;;;5039114;28;20055;-76
2021/04/15 13:45:11;;;;;;;3.83;1.95;;;13.80;41.20;;;;;;5062189;28;20135;-77
2021/04/15 13:47:54;;;;;;;4.60;2.00;;;13.90;41.20;;;;;;5073263;28;20052;-77
2021/04/15 13:51:19;;;;;;;3.97;2.10;;;14.10;41.50;;;;;;5081662;28;20096;-77
2021/04/15 13:54:23;;;;;;;5.05;2.15;;;14.30;40.30;;;;;;5070145;28;20045;-76
2021/04/15 13:57:16;;;;;;;4.45;1.90;;;14.50;41.30;;;;;;5069973;28;20041;-77
2021/04/15 13:59:58;;;;;;;5.70;2.25;;;14.40;42.90;;;;;;5070165;28;20079;-78
2021/04/15 14:02:46;;;;;;;4.03;1.80;;;13.90;43.60;;;;;;5051247;28;20083;-76